MDT,Max TemperatureF,Mean TemperatureF,Min TemperatureF,Max Dew PointF,MeanDew PointF,Min DewpointF,Max Humidity, Mean Humidity, Min Humidity, Max Sea Level PressureIn, Mean Sea Level PressureIn, Min Sea Level PressureIn, Max VisibilityMiles, Mean VisibilityMiles, Min VisibilityMiles, Max Wind SpeedMPH, Mean Wind SpeedMPH, Max Gust SpeedMPH,PrecipitationIn, CloudCover, Events, WindDirDegrees
2013-8-1,66,62,57,59,56,55,100,88,68,30.14,30.12,30.09,10,8,2,14,1,,0.00,8,Rain,228
2013-8-2,68,64,59,61,57,55,100,87,68,30.17,30.15,30.13,10,9,2,7,1,,0.04,8,Rain,270
2013-8-3,69,63,55,59,57,54,100,80,60,30.14,30.11,30.05,10,10,7,14,2,,0.00,5,,310
2013-8-4,64,60,55,59,56,54,100,92,73,30.07,30.05,30.02,10,7,0,10,1,,0.00,7,Fog,319
2013-8-5,64,58,53,55,54,52,100,89,68,30.08,30.05,30.01,10,7,1,8,1,,0.00,6,,323
2013-8-6,68,60,51,55,54,52,100,88,60,30.04,30.02,30.00,10,6,0,12,2,,0.00,5,Fog,322
2013-8-7,66,58,51,55,54,52,100,89,64,30.11,30.07,30.02,10,7,0,10,1,,0.00,7,Fog,262
2013-8-8,69,62,55,61,57,54,100,88,64,30.10,30.05,29.99,10,8,1,17,3,22,0.00,5,,313
2013-8-9,68,60,53,59,55,52,100,87,68,30.01,29.98,29.95,10,8,1,14,3,18,0.00,7,,297
2013-8-10,66,60,55,59,56,54,100,84,68,30.10,30.04,29.98,10,8,2,12,2,,0.00,8,,279
2013-8-11,64,62,59,61,57,55,100,89,73,30.10,30.09,30.06,10,6,2,9,1,,0.00,8,Rain,273
2013-8-12,71,63,55,57,54,50,94,74,49,30.12,30.09,30.07,10,10,7,12,1,,0.00,5,,297
2013-8-13,75,60,44,54,50,45,100,77,44,30.13,30.07,29.98,10,9,0,10,1,,0.00,1,Fog,299
2013-8-14,73,60,48,63,54,46,100,81,43,30.00,29.98,29.96,10,9,4,9,1,,0.12,3,Rain,218
2013-8-15,69,64,60,66,63,61,100,95,78,30.02,29.98,29.95,10,6,1,7,1,,0.18,8,Rain,278
2013-8-16,75,67,59,66,61,55,100,89,60,30.09,30.03,29.99,10,7,0,10,1,,0.00,7,Fog,286
2013-8-17,69,62,55,61,60,55,100,89,73,30.13,30.10,30.07,10,9,0,9,1,,0.00,8,Fog,287
2013-8-18,75,64,53,63,58,54,100,81,57,30.16,30.14,30.10,10,9,0,14,3,18,0.00,2,Fog,291
2013-8-19,71,61,51,63,56,52,100,83,53,30.17,30.14,30.10,10,8,0,20,4,25,0.00,4,Fog,294
2013-8-20,71,58,44,55,52,45,100,79,53,30.16,30.12,30.05,10,8,0,21,4,26,0.00,1,Fog,292
2013-8-21,78,61,44,57,51,43,100,76,42,30.06,29.98,29.90,10,8,0,9,0,,0.00,1,Fog,335
2013-8-22,68,58,48,57,53,46,100,84,64,29.96,29.93,29.91,10,9,7,14,1,,0.00,2,,259
2013-8-23,69,64,59,63,59,55,100,89,60,29.97,29.95,29.93,10,8,1,10,1,,0.00,8,Rain,209
2013-8-24,71,65,59,61,58,54,100,83,56,29.95,29.94,29.92,10,10,3,10,1,,0.00,6,,287
2013-8-25,73,62,51,61,55,52,100,84,53,29.95,29.94,29.92,10,7,0,8,0,,0.00,6,Fog-Rain,275
2013-8-26,73,63,53,63,55,50,100,86,44,29.97,29.94,29.91,10,7,0,15,2,21,0.40,7,Fog-Rain,201
2013-8-27,71,66,60,64,62,59,100,90,69,29.97,29.91,29.86,10,9,3,9,0,,0.05,7,Rain,250
2013-8-28,71,66,60,64,62,61,100,90,69,29.93,29.89,29.85,10,10,7,7,0,,0.04,7,Rain,236
2013-8-29,69,64,60,68,64,61,100,100,94,30.08,29.95,29.86,10,8,1,14,2,20,0.47,7,Rain,201
2013-8-30,32,28,23,32,28,23,100,99,93,30.18,30.12,30.08,10,9,0,13,3,,0.08,4,Fog-Rain,279
2013-8-31,41,36,30,39,35,30,100,95,87,30.09,29.98,29.90,10,6,0,9,1,,0.01,5,Fog,302